sensor_id;sensor_type;location;lat;lon;timestamp;pressure;altitude;pressure_sealevel;temperature;humidity
67052;BME280;53957;47.222;18.670;2022-12-18T08:46:26;102221.19;;;2.12;92.20
67052;BME280;53957;47.222;18.670;2022-12-18T08:57:50;102219.22;;;2.67;90.79
67052;BME280;53957;47.222;18.670;2022-12-18T09:01:27;102234.66;;;3.00;90.42
67052;BME280;53957;47.222;18.670;2022-12-18T09:05:03;102233.56;;;3.39;85.74
67052;BME280;53957;47.222;18.670;2022-12-18T09:08:39;102240.97;;;2.99;85.29
67052;BME280;53957;47.222;18.670;2022-12-18T09:12:19;102233.19;;;2.52;85.32
67052;BME280;53957;47.222;18.670;2022-12-18T09:15:55;102239.59;;;3.69;84.35
67052;BME280;53957;47.222;18.670;2022-12-18T09:19:19;102236.50;;;2.84;84.62
67052;BME280;53957;47.222;18.670;2022-12-18T09:22:54;102238.16;;;3.67;79.55
67052;BME280;53957;47.222;18.670;2022-12-18T09:26:39;102238.66;;;3.26;83.53
67052;BME280;53957;47.222;18.670;2022-12-18T09:30:25;102232.66;;;1.33;87.97
67052;BME280;53957;47.222;18.670;2022-12-18T09:34:23;102231.69;;;1.88;88.90
67052;BME280;53957;47.222;18.670;2022-12-18T09:37:51;102236.41;;;1.70;86.17
67052;BME280;53957;47.222;18.670;2022-12-18T09:41:40;102245.75;;;3.40;83.24
67052;BME280;53957;47.222;18.670;2022-12-18T09:45:39;102244.53;;;2.30;82.04
67052;BME280;53957;47.222;18.670;2022-12-18T09:49:23;102245.47;;;1.67;86.99
67052;BME280;53957;47.222;18.670;2022-12-18T09:53:19;102240.59;;;3.02;83.85
67052;BME280;53957;47.222;18.670;2022-12-18T09:56:59;102225.50;;;2.96;84.01
67052;BME280;53957;47.222;18.670;2022-12-18T10:15:52;102220.47;;;1.95;83.27
67052;BME280;53957;47.222;18.670;2022-12-18T10:18:54;102217.72;;;2.11;85.48
67052;BME280;53957;47.222;18.670;2022-12-18T11:38:59;102200.00;;;0.71;95.16
67052;BME280;53957;47.222;18.670;2022-12-18T11:45:28;102201.78;;;0.78;95.25
67052;BME280;53957;47.222;18.670;2022-12-18T11:52:22;102192.91;;;0.88;96.14
67052;BME280;53957;47.222;18.670;2022-12-18T11:55:47;102187.34;;;0.74;98.62
67052;BME280;53957;47.222;18.670;2022-12-18T11:59:08;102173.06;;;0.69;96.29
67052;BME280;53957;47.222;18.670;2022-12-18T14:38:59;102260.84;;;-0.59;100.00
67052;BME280;53957;47.222;18.670;2022-12-18T15:39:35;102334.41;;;-2.89;100.00
67052;BME280;53957;47.222;18.670;2022-12-18T15:43:05;102346.94;;;-2.93;100.00
67052;BME280;53957;47.222;18.670;2022-12-18T15:46:46;102350.50;;;-2.84;100.00
67052;BME280;53957;47.222;18.670;2022-12-18T15:50:10;102353.66;;;-2.80;100.00
67052;BME280;53957;47.222;18.670;2022-12-18T15:53:33;102350.53;;;-2.94;100.00
67052;BME280;53957;47.222;18.670;2022-12-18T15:57:16;102353.00;;;-3.02;100.00
67052;BME280;53957;47.222;18.670;2022-12-18T16:00:45;102351.50;;;-3.24;100.00
67052;BME280;53957;47.222;18.670;2022-12-18T16:04:29;102349.28;;;-3.29;100.00
67052;BME280;53957;47.222;18.670;2022-12-18T16:08:12;102353.41;;;-3.46;100.00
67052;BME280;53957;47.222;18.670;2022-12-18T16:12:18;102356.31;;;-3.49;100.00
67052;BME280;53957;47.222;18.670;2022-12-18T16:16:05;102357.41;;;-3.51;100.00
67052;BME280;53957;47.222;18.670;2022-12-18T16:19:43;102376.47;;;-3.61;100.00
67052;BME280;53957;47.222;18.670;2022-12-18T16:23:40;102372.47;;;-3.65;100.00
67052;BME280;53957;47.222;18.670;2022-12-18T16:31:12;102387.84;;;-3.81;100.00
67052;BME280;53957;47.222;18.670;2022-12-18T16:34:50;102395.38;;;-3.78;100.00
67052;BME280;53957;47.222;18.670;2022-12-18T16:38:25;102396.75;;;-3.74;100.00
67052;BME280;53957;47.222;18.670;2022-12-18T16:42:14;102408.38;;;-3.88;100.00
67052;BME280;53957;47.222;18.670;2022-12-18T16:45:51;102412.34;;;-3.94;100.00
67052;BME280;53957;47.222;18.670;2022-12-18T16:49:26;102420.31;;;-3.85;100.00
67052;BME280;53957;47.222;18.670;2022-12-18T16:53:01;102421.69;;;-3.91;100.00
67052;BME280;53957;47.222;18.670;2022-12-18T16:56:04;102414.25;;;-3.96;100.00
67052;BME280;53957;47.222;18.670;2022-12-18T16:59:28;102404.50;;;-4.03;100.00
67052;BME280;53957;47.222;18.670;2022-12-18T17:03:19;102403.13;;;-3.98;100.00
67052;BME280;53957;47.222;18.670;2022-12-18T17:06:47;102399.84;;;-4.00;100.00
67052;BME280;53957;47.222;18.670;2022-12-18T17:10:00;102397.62;;;-4.05;100.00
67052;BME280;53957;47.222;18.670;2022-12-18T17:13:25;102392.00;;;-4.10;100.00
67052;BME280;53957;47.222;18.670;2022-12-18T17:16:50;102386.03;;;-4.22;100.00
67052;BME280;53957;47.222;18.670;2022-12-18T17:20:34;102383.34;;;-4.10;100.00
67052;BME280;53957;47.222;18.670;2022-12-18T17:23:37;102375.50;;;-4.10;100.00
67052;BME280;53957;47.222;18.670;2022-12-18T17:26:42;102378.13;;;-4.10;100.00
67052;BME280;53957;47.222;18.670;2022-12-18T17:29:45;102387.41;;;-4.17;100.00
67052;BME280;53957;47.222;18.670;2022-12-18T17:32:50;102385.09;;;-4.21;100.00
67052;BME280;53957;47.222;18.670;2022-12-18T17:36:13;102393.28;;;-4.25;100.00
67052;BME280;53957;47.222;18.670;2022-12-18T17:39:21;102406.03;;;-4.32;100.00
67052;BME280;53957;47.222;18.670;2022-12-18T17:42:24;102402.41;;;-4.41;100.00
67052;BME280;53957;47.222;18.670;2022-12-18T17:45:28;102396.19;;;-4.49;100.00
67052;BME280;53957;47.222;18.670;2022-12-18T17:48:33;102398.53;;;-4.46;100.00
67052;BME280;53957;47.222;18.670;2022-12-18T17:51:37;102398.25;;;-4.43;100.00
67052;BME280;53957;47.222;18.670;2022-12-18T17:54:44;102393.84;;;-4.53;100.00
67052;BME280;53957;47.222;18.670;2022-12-18T17:57:51;102402.59;;;-4.54;100.00
67052;BME280;53957;47.222;18.670;2022-12-18T18:01:03;102394.34;;;-4.59;100.00
67052;BME280;53957;47.222;18.670;2022-12-18T18:04:07;102392.97;;;-4.63;100.00
67052;BME280;53957;47.222;18.670;2022-12-18T18:07:12;102392.69;;;-4.60;100.00
67052;BME280;53957;47.222;18.670;2022-12-18T18:10:23;102395.81;;;-4.66;100.00
67052;BME280;53957;47.222;18.670;2022-12-18T18:13:52;102396.53;;;-4.64;100.00
67052;BME280;53957;47.222;18.670;2022-12-18T18:17:13;102402.87;;;-4.57;100.00
67052;BME280;53957;47.222;18.670;2022-12-18T18:20:39;102398.41;;;-4.66;100.00
67052;BME280;53957;47.222;18.670;2022-12-18T18:23:43;102397.72;;;-4.68;100.00
67052;BME280;53957;47.222;18.670;2022-12-18T19:16:36;102430.84;;;-5.24;100.00
67052;BME280;53957;47.222;18.670;2022-12-18T19:19:39;102430.06;;;-5.36;100.00
67052;BME280;53957;47.222;18.670;2022-12-18T19:22:42;102430.19;;;-5.37;100.00
67052;BME280;53957;47.222;18.670;2022-12-18T19:26:01;102436.31;;;-5.27;100.00
67052;BME280;53957;47.222;18.670;2022-12-18T19:29:26;102440.97;;;-5.42;100.00
67052;BME280;53957;47.222;18.670;2022-12-18T19:32:29;102436.13;;;-5.46;100.00
67052;BME280;53957;47.222;18.670;2022-12-18T19:35:33;102438.38;;;-5.53;100.00
67052;BME280;53957;47.222;18.670;2022-12-18T19:38:36;102444.88;;;-5.47;100.00
67052;BME280;53957;47.222;18.670;2022-12-18T19:41:40;102450.87;;;-5.47;100.00
67052;BME280;53957;47.222;18.670;2022-12-18T19:44:44;102462.47;;;-5.51;100.00
67052;BME280;53957;47.222;18.670;2022-12-18T19:47:46;102460.81;;;-5.52;100.00
67052;BME280;53957;47.222;18.670;2022-12-18T19:50:49;102460.72;;;-5.51;100.00
67052;BME280;53957;47.222;18.670;2022-12-18T19:53:54;102466.63;;;-5.60;100.00
67052;BME280;53957;47.222;18.670;2022-12-18T19:57:01;102465.22;;;-5.53;100.00
67052;BME280;53957;47.222;18.670;2022-12-18T20:00:05;102470.19;;;-5.61;100.00
67052;BME280;53957;47.222;18.670;2022-12-18T20:03:13;102464.97;;;-5.61;100.00
67052;BME280;53957;47.222;18.670;2022-12-18T20:06:32;102461.09;;;-5.67;100.00
67052;BME280;53957;47.222;18.670;2022-12-18T20:09:35;102468.28;;;-5.59;100.00
67052;BME280;53957;47.222;18.670;2022-12-18T20:12:38;102483.91;;;-5.59;100.00
67052;BME280;53957;47.222;18.670;2022-12-18T20:15:41;102486.16;;;-5.54;100.00
67052;BME280;53957;47.222;18.670;2022-12-18T20:18:47;102485.75;;;-5.50;100.00
67052;BME280;53957;47.222;18.670;2022-12-18T20:21:51;102482.47;;;-5.52;100.00
67052;BME280;53957;47.222;18.670;2022-12-18T20:24:54;102489.91;;;-5.58;100.00
67052;BME280;53957;47.222;18.670;2022-12-18T20:27:56;102501.16;;;-5.58;100.00
67052;BME280;53957;47.222;18.670;2022-12-18T20:31:04;102503.84;;;-5.59;100.00
67052;BME280;53957;47.222;18.670;2022-12-18T20:34:07;102504.81;;;-5.49;100.00
67052;BME280;53957;47.222;18.670;2022-12-18T20:37:17;102497.63;;;-5.57;100.00
67052;BME280;53957;47.222;18.670;2022-12-18T20:40:22;102506.56;;;-5.61;100.00
67052;BME280;53957;47.222;18.670;2022-12-18T20:43:25;102510.97;;;-5.61;100.00
67052;BME280;53957;47.222;18.670;2022-12-18T20:46:28;102498.78;;;-5.72;100.00
67052;BME280;53957;47.222;18.670;2022-12-18T20:49:31;102503.25;;;-5.63;100.00
67052;BME280;53957;47.222;18.670;2022-12-18T20:52:34;102504.56;;;-5.69;100.00
67052;BME280;53957;47.222;18.670;2022-12-18T20:55:40;102501.37;;;-5.61;100.00
67052;BME280;53957;47.222;18.670;2022-12-18T20:58:44;102504.44;;;-5.67;100.00
67052;BME280;53957;47.222;18.670;2022-12-18T21:01:47;102504.91;;;-5.73;100.00
67052;BME280;53957;47.222;18.670;2022-12-18T21:04:51;102507.91;;;-5.67;100.00
67052;BME280;53957;47.222;18.670;2022-12-18T21:07:55;102512.25;;;-5.67;100.00
67052;BME280;53957;47.222;18.670;2022-12-18T21:11:27;102516.38;;;-5.64;100.00
67052;BME280;53957;47.222;18.670;2022-12-18T21:14:48;102503.75;;;-5.46;100.00
67052;BME280;53957;47.222;18.670;2022-12-18T21:17:51;102504.37;;;-5.10;100.00
67052;BME280;53957;47.222;18.670;2022-12-18T21:20:54;102505.56;;;-5.03;100.00
67052;BME280;53957;47.222;18.670;2022-12-18T21:23:57;102501.75;;;-4.99;100.00
67052;BME280;53957;47.222;18.670;2022-12-18T21:27:00;102513.66;;;-4.85;100.00
67052;BME280;53957;47.222;18.670;2022-12-18T21:30:04;102504.59;;;-5.02;100.00
67052;BME280;53957;47.222;18.670;2022-12-18T21:33:07;102507.31;;;-4.92;100.00
67052;BME280;53957;47.222;18.670;2022-12-18T21:36:10;102510.41;;;-4.98;100.00
67052;BME280;53957;47.222;18.670;2022-12-18T21:39:15;102513.09;;;-5.00;100.00
67052;BME280;53957;47.222;18.670;2022-12-18T21:42:18;102508.56;;;-5.30;100.00
67052;BME280;53957;47.222;18.670;2022-12-18T21:45:39;102490.06;;;-5.05;100.00
67052;BME280;53957;47.222;18.670;2022-12-18T21:48:42;102495.22;;;-5.26;100.00
67052;BME280;53957;47.222;18.670;2022-12-18T21:51:47;102494.97;;;-4.90;100.00
67052;BME280;53957;47.222;18.670;2022-12-18T21:54:50;102502.78;;;-5.34;100.00
67052;BME280;53957;47.222;18.670;2022-12-18T21:57:53;102494.37;;;-5.38;100.00
67052;BME280;53957;47.222;18.670;2022-12-18T22:00:56;102503.47;;;-5.43;100.00
67052;BME280;53957;47.222;18.670;2022-12-18T22:03:59;102498.88;;;-5.40;100.00
67052;BME280;53957;47.222;18.670;2022-12-18T22:07:03;102499.81;;;-5.29;100.00
67052;BME280;53957;47.222;18.670;2022-12-18T22:10:07;102503.75;;;-5.46;100.00
67052;BME280;53957;47.222;18.670;2022-12-18T22:13:10;102496.06;;;-5.59;100.00
67052;BME280;53957;47.222;18.670;2022-12-18T22:16:13;102485.88;;;-5.51;100.00
67052;BME280;53957;47.222;18.670;2022-12-18T22:19:16;102484.53;;;-5.23;100.00
67052;BME280;53957;47.222;18.670;2022-12-18T22:22:19;102487.41;;;-5.48;100.00
67052;BME280;53957;47.222;18.670;2022-12-18T22:25:22;102482.69;;;-5.32;100.00
67052;BME280;53957;47.222;18.670;2022-12-18T22:28:25;102485.06;;;-5.63;100.00
67052;BME280;53957;47.222;18.670;2022-12-18T22:31:46;102489.31;;;-5.62;100.00
67052;BME280;53957;47.222;18.670;2022-12-18T22:34:49;102495.47;;;-5.97;100.00
67052;BME280;53957;47.222;18.670;2022-12-18T22:37:52;102495.03;;;-6.02;100.00
67052;BME280;53957;47.222;18.670;2022-12-18T22:40:55;102506.25;;;-5.79;100.00
67052;BME280;53957;47.222;18.670;2022-12-18T22:43:58;102514.50;;;-6.08;100.00
67052;BME280;53957;47.222;18.670;2022-12-18T22:47:01;102514.37;;;-6.06;100.00
67052;BME280;53957;47.222;18.670;2022-12-18T22:50:13;102507.75;;;-6.10;100.00
67052;BME280;53957;47.222;18.670;2022-12-18T22:53:18;102512.69;;;-6.19;100.00
67052;BME280;53957;47.222;18.670;2022-12-18T22:56:21;102512.94;;;-6.22;100.00
67052;BME280;53957;47.222;18.670;2022-12-18T22:59:24;102504.31;;;-6.22;100.00
67052;BME280;53957;47.222;18.670;2022-12-18T23:02:27;102509.00;;;-6.27;100.00
67052;BME280;53957;47.222;18.670;2022-12-18T23:05:30;102504.28;;;-6.34;100.00
67052;BME280;53957;47.222;18.670;2022-12-18T23:08:33;102502.53;;;-6.33;100.00
67052;BME280;53957;47.222;18.670;2022-12-18T23:11:36;102510.06;;;-6.30;100.00
67052;BME280;53957;47.222;18.670;2022-12-18T23:14:39;102517.44;;;-6.12;100.00
67052;BME280;53957;47.222;18.670;2022-12-18T23:17:42;102516.50;;;-6.11;100.00
67052;BME280;53957;47.222;18.670;2022-12-18T23:20:45;102518.84;;;-5.97;100.00
67052;BME280;53957;47.222;18.670;2022-12-18T23:23:49;102525.34;;;-6.14;100.00
67052;BME280;53957;47.222;18.670;2022-12-18T23:26:52;102518.81;;;-6.31;100.00
67052;BME280;53957;47.222;18.670;2022-12-18T23:29:55;102521.19;;;-6.28;100.00
67052;BME280;53957;47.222;18.670;2022-12-18T23:32:59;102524.25;;;-6.34;100.00
67052;BME280;53957;47.222;18.670;2022-12-18T23:36:03;102522.47;;;-6.22;100.00
67052;BME280;53957;47.222;18.670;2022-12-18T23:39:06;102521.47;;;-6.08;100.00
67052;BME280;53957;47.222;18.670;2022-12-18T23:42:09;102517.38;;;-6.35;100.00
67052;BME280;53957;47.222;18.670;2022-12-18T23:45:14;102515.81;;;-6.13;100.00
67052;BME280;53957;47.222;18.670;2022-12-18T23:48:20;102514.00;;;-6.24;100.00
67052;BME280;53957;47.222;18.670;2022-12-18T23:51:22;102517.59;;;-6.38;100.00
67052;BME280;53957;47.222;18.670;2022-12-18T23:54:27;102507.03;;;-6.24;100.00
67052;BME280;53957;47.222;18.670;2022-12-18T23:57:35;102503.38;;;-6.21;100.00
